• Join FlightAware (Why Join?)
  • Login
  • US Flag 
04:07AM EDT


 

Airport Tracker/Info


-or-


 

Live Flight TrackerFlight Track Log ✈ RPA3159 ✈ 22-May-2013 ✈ KBTV - KPHL

Flight Track Log - Related Links

Times and Time Zones

All times are in EDT time to prevent confusion due to time zone crossing. See the RPA3159 flight status page for this flight to view local times or setup timezone preferences in your user account.

Time Position Orientation Groundspeed Altitude Reporting Facility
EDT Latitude Longitude Course Direction KTS MPH feet Rate Location/Type
11:34AM 44.3800 -73.1314 195° South 216 249 3,900  Level Boston Center
11:35AM 44.1233 -73.2788 195° South  Level FlightAware Approximate
11:35AM 44.3050 -73.1594 195° South 251 289 6,900  Level Boston Center
11:36AM 44.0368 -73.3100 194° South  Level FlightAware Approximate
11:36AM 44.2297 -73.1906 196° South 280 322 10,300  Level Boston Center
11:37AM 43.9486 -73.3394 193° South  Level FlightAware Approximate
11:37AM 44.1503 -73.2269 198° South 288 331 12,400  Level Boston Center
11:38AM 43.8609 -73.3710 195° South  Level FlightAware Approximate
11:38AM 44.0769 -73.2925 213° Southwest 302 348 15,000  Level Boston Center
11:39AM 43.7646 -73.4072 195° South  Level FlightAware Approximate
11:39AM 43.9867 -73.3750 213° Southwest 317 365 17,700  Level Boston Center
11:40AM 43.9089 -73.4458 213° Southwest 334 384 20,400 2,280 Climbing Boston Center
11:41AM 43.8292 -73.5164 213° Southwest 339 390 22,300 1,740 Climbing Boston Center
11:42AM 43.7472 -73.5897 213° Southwest 345 397 23,900 1,500 Climbing Boston Center
11:43AM 43.6631 -73.6656 213° Southwest 357 411 25,300 1,020 Climbing Boston Center
11:44AM 43.5747 -73.7439 213° Southwest 370 426 26,000 300 Climbing Boston Center
11:45AM 43.4819 -73.8278 213° Southwest 392 451 26,000  Level Boston Center
11:46AM 43.3872 -73.9114 213° Southwest 403 464 26,000  Level Boston Center
11:47AM 43.2942 -73.9947 213° Southwest 403 464 26,000  Level Boston Center
11:48AM 43.1972 -74.0778 212° Southwest 408 470 26,000  Level Boston Center
11:49AM 43.1042 -74.1633 214° Southwest 408 470 26,000  Level Boston Center
11:50AM 43.0092 -74.2458 212° Southwest 408 470 26,000  Level Boston Center
11:51AM 42.9161 -74.3283 213° Southwest 408 470 26,000  Level Boston Center
11:52AM 42.8189 -74.4103 212° Southwest 414 476 26,000  Level Boston Center
11:53AM 42.7236 -74.4947 213° Southwest 414 476 26,000  Level Boston Center
11:54AM 42.6283 -74.5736 211° Southwest 414 476 26,000 -180 Level Boston Center
11:55AM 42.5331 -74.6575 213° Southwest 419 482 25,700 -900 Descending Boston Center
11:56AM 42.4375 -74.7386 212° Southwest 419 482 24,300 -1,680 Descending Boston Center
11:58AM 42.2686 -74.8817 212° Southwest 407 468 20,700 -1,800 Descending New York Center
11:59AM 42.1806 -74.9547 212° Southwest 391 450 19,000 -900 Descending New York Center
12:00PM 42.0883 -75.0353 213° Southwest 378 435 19,000  Level New York Center
12:01PM 42.0003 -75.1078 211° Southwest 373 429 19,000  Level New York Center
12:02PM 41.9253 -75.1697 212° Southwest 373 429 19,000  Level New York Center
12:03PM 41.8372 -75.2392 210° Southwest 373 429 19,000 -780 Level New York Center
12:04PM 41.7447 -75.3164 212° Southwest 373 429 17,500 -1,020 Descending New York Center
12:05PM 41.6611 -75.3800 210° Southwest 373 429 17,000 -420 Descending New York Center
12:06PM 41.5750 -75.4489 211° Southwest 373 429 16,700 -1,020 Descending New York Center
12:07PM 41.5278 -75.5372 234° Southwest 340 391 15,000 -1,380 Descending New York Center
12:08PM 41.5061 -75.6603 257° West 317 365 14,000 -480 Descending New York Center
12:09PM 41.4133 -75.6867 192° South 296 341 14,100 -240 Climbing New York Center
12:10PM 41.3111 -75.6903 182° South 322 371 13,600 -900 Descending New York Center
12:11PM 41.2153 -75.6914 180° South 345 397 12,300 -1,260 Descending New York Center
12:12PM 41.1319 -75.6936 181° South 345 397 11,200 -1,140 Descending New York Center
12:13PM 41.0400 -75.6981 182° South 345 397 10,100 -600 Descending New York Center
12:14PM 40.9419 -75.6553 162° South 345 397 10,000 -60 Descending New York Center
12:15PM 40.8497 -75.6131 161° South 345 397 10,000  Level New York Center
12:16PM 40.7619 -75.5739 161° South 340 391 10,000  Level New York Center
12:17PM 40.6800 -75.5353 160° South 340 391 10,000  Level New York Center
12:18PM 40.5900 -75.4961 162° South 340 391 10,000  Level New York Center
12:19PM 40.5019 -75.4547 160° South 340 391 10,000 -600 Level New York Center
12:20PM 40.4161 -75.4133 160° South 320 368 8,900 -1,380 Descending New York Center
12:21PM 40.3508 -75.3736 155° Southeast 294 338 7,300 -1,200 Descending New York Center
12:22PM 40.2694 -75.3275 157° South 289 333 6,600 -660 Descending New York Center
12:23PM 40.1958 -75.2872 157° South 289 333 6,000 -360 Descending New York Center
12:24PM 40.1244 -75.2472 157° South 289 333 6,000  Level New York Center
12:25PM 40.0739 -75.2033 146° Southeast 270 311 6,000  Level New York Center
12:26PM 40.0544 -75.1153 106° East 227 261 6,000 -60 Level New York Center
12:27PM 40.0333 -75.0333 109° East 221 254 5,900 -720 Descending Philadelphia TRACON
12:28PM 39.9833 -75.0000 153° Southeast 203 234 4,600 -1,320 Descending Philadelphia TRACON
12:29PM 39.9333 -74.9833 166° South 182 209 3,400 -1,320 Descending Philadelphia TRACON
12:30PM 39.9167 -75.0500 252° West 168 193 2,100 -1,320 Descending Philadelphia TRACON